sensor_id;sensor_type;location;lat;lon;timestamp;pressure;altitude;pressure_sealevel;temperature;humidity
58662;BME280;44432;49.786;22.760;2023-06-10T00:01:21;99065.38;;;17.23;82.32
58662;BME280;44432;49.786;22.760;2023-06-10T00:03:53;99065.86;;;17.23;82.36
58662;BME280;44432;49.786;22.760;2023-06-10T00:06:24;99062.33;;;17.23;82.44
58662;BME280;44432;49.786;22.760;2023-06-10T00:08:55;99062.33;;;17.22;82.53
58662;BME280;44432;49.786;22.760;2023-06-10T00:11:25;99061.42;;;17.23;82.64
58662;BME280;44432;49.786;22.760;2023-06-10T00:13:56;99056.77;;;17.24;82.63
58662;BME280;44432;49.786;22.760;2023-06-10T00:16:27;99058.60;;;17.24;82.59
58662;BME280;44432;49.786;22.760;2023-06-10T00:18:58;99059.73;;;17.25;82.66
58662;BME280;44432;49.786;22.760;2023-06-10T00:21:31;99059.78;;;17.26;82.59
58662;BME280;44432;49.786;22.760;2023-06-10T00:24:10;99058.88;;;17.26;82.63
58662;BME280;44432;49.786;22.760;2023-06-10T00:26:41;99062.98;;;17.25;82.50
58662;BME280;44432;49.786;22.760;2023-06-10T00:29:12;99064.52;;;17.23;82.48
58662;BME280;44432;49.786;22.760;2023-06-10T00:31:44;99066.80;;;17.20;82.53
58662;BME280;44432;49.786;22.760;2023-06-10T00:34:15;99065.83;;;17.17;82.53
58662;BME280;44432;49.786;22.760;2023-06-10T00:36:46;99066.71;;;17.13;82.52
58662;BME280;44432;49.786;22.760;2023-06-10T00:39:16;99064.19;;;17.09;82.50
58662;BME280;44432;49.786;22.760;2023-06-10T00:41:47;99062.10;;;17.06;82.55
58662;BME280;44432;49.786;22.760;2023-06-10T00:44:18;99060.33;;;17.03;82.67
58662;BME280;44432;49.786;22.760;2023-06-10T00:46:48;99060.04;;;16.99;82.74
58662;BME280;44432;49.786;22.760;2023-06-10T00:49:20;99054.16;;;16.96;82.85
58662;BME280;44432;49.786;22.760;2023-06-10T00:51:52;99055.04;;;16.92;82.90
58662;BME280;44432;49.786;22.760;2023-06-10T00:54:23;99048.63;;;16.89;82.94
58662;BME280;44432;49.786;22.760;2023-06-10T00:56:56;99052.39;;;16.87;83.17
58662;BME280;44432;49.786;22.760;2023-06-10T00:59:27;99056.60;;;16.85;83.31
58662;BME280;44432;49.786;22.760;2023-06-10T01:01:59;99059.16;;;16.84;83.46
58662;BME280;44432;49.786;22.760;2023-06-10T01:04:30;99051.04;;;16.81;83.57
58662;BME280;44432;49.786;22.760;2023-06-10T01:07:08;99052.20;;;16.79;83.79
58662;BME280;44432;49.786;22.760;2023-06-10T01:09:48;99051.02;;;16.78;84.03
58662;BME280;44432;49.786;22.760;2023-06-10T01:12:28;99046.38;;;16.77;84.14
58662;BME280;44432;49.786;22.760;2023-06-10T01:15:02;99046.52;;;16.76;84.44
58662;BME280;44432;49.786;22.760;2023-06-10T01:17:33;99045.82;;;16.74;84.47
58662;BME280;44432;49.786;22.760;2023-06-10T01:20:07;99046.71;;;16.71;84.64
58662;BME280;44432;49.786;22.760;2023-06-10T01:22:41;99043.97;;;16.67;84.64
58662;BME280;44432;49.786;22.760;2023-06-10T01:25:15;99045.66;;;16.65;84.85
58662;BME280;44432;49.786;22.760;2023-06-10T01:27:47;99047.50;;;16.63;84.97
58662;BME280;44432;49.786;22.760;2023-06-10T01:30:20;99049.31;;;16.62;85.18
58662;BME280;44432;49.786;22.760;2023-06-10T01:32:55;99051.42;;;16.58;85.22
58662;BME280;44432;49.786;22.760;2023-06-10T01:35:30;99053.17;;;16.55;85.39
58662;BME280;44432;49.786;22.760;2023-06-10T01:38:03;99050.37;;;16.52;85.57
58662;BME280;44432;49.786;22.760;2023-06-10T01:40:34;99051.06;;;16.51;85.65
58662;BME280;44432;49.786;22.760;2023-06-10T01:43:06;99054.57;;;16.51;85.79
58662;BME280;44432;49.786;22.760;2023-06-10T01:45:37;99054.35;;;16.50;85.81
58662;BME280;44432;49.786;22.760;2023-06-10T01:48:08;99051.46;;;16.48;85.66
58662;BME280;44432;49.786;22.760;2023-06-10T01:50:38;99051.12;;;16.44;85.27
58662;BME280;44432;49.786;22.760;2023-06-10T01:53:09;99046.69;;;16.36;85.18
58662;BME280;44432;49.786;22.760;2023-06-10T01:55:40;99048.70;;;16.33;85.38
58662;BME280;44432;49.786;22.760;2023-06-10T01:58:10;99048.14;;;16.30;85.67
58662;BME280;44432;49.786;22.760;2023-06-10T02:00:42;99052.02;;;16.29;85.75
58662;BME280;44432;49.786;22.760;2023-06-10T02:03:13;99047.31;;;16.26;85.76
58662;BME280;44432;49.786;22.760;2023-06-10T02:05:44;99048.20;;;16.25;85.76
58662;BME280;44432;49.786;22.760;2023-06-10T02:08:15;99048.89;;;16.24;85.71
58662;BME280;44432;49.786;22.760;2023-06-10T02:10:45;99050.85;;;16.22;85.69
58662;BME280;44432;49.786;22.760;2023-06-10T02:13:16;99049.86;;;16.20;85.59
58662;BME280;44432;49.786;22.760;2023-06-10T02:15:47;99050.86;;;16.17;85.57
58662;BME280;44432;49.786;22.760;2023-06-10T02:18:18;99053.39;;;16.14;85.59
58662;BME280;44432;49.786;22.760;2023-06-10T02:20:50;99056.84;;;16.12;85.62
58662;BME280;44432;49.786;22.760;2023-06-10T02:23:20;99056.41;;;16.07;85.50
58662;BME280;44432;49.786;22.760;2023-06-10T02:25:51;99057.33;;;16.01;85.77
58662;BME280;44432;49.786;22.760;2023-06-10T02:28:22;99056.71;;;15.98;85.85
58662;BME280;44432;49.786;22.760;2023-06-10T02:30:52;99053.34;;;15.96;86.08
58662;BME280;44432;49.786;22.760;2023-06-10T02:33:23;99053.58;;;15.94;86.01
58662;BME280;44432;49.786;22.760;2023-06-10T02:35:54;99054.63;;;15.91;86.15
58662;BME280;44432;49.786;22.760;2023-06-10T02:38:25;99058.81;;;15.89;86.32
58662;BME280;44432;49.786;22.760;2023-06-10T02:40:56;99059.23;;;15.88;86.55
58662;BME280;44432;49.786;22.760;2023-06-10T02:43:26;99061.29;;;15.86;86.51
58662;BME280;44432;49.786;22.760;2023-06-10T02:45:57;99063.89;;;15.85;86.60
58662;BME280;44432;49.786;22.760;2023-06-10T02:48:28;99056.95;;;15.84;86.81
58662;BME280;44432;49.786;22.760;2023-06-10T02:50:58;99058.88;;;15.85;86.83
58662;BME280;44432;49.786;22.760;2023-06-10T02:53:29;99058.50;;;15.85;86.90
58662;BME280;44432;49.786;22.760;2023-06-10T02:56:00;99059.65;;;15.82;86.84
58662;BME280;44432;49.786;22.760;2023-06-10T02:58:31;99065.06;;;15.80;87.06
58662;BME280;44432;49.786;22.760;2023-06-10T03:01:01;99065.17;;;15.81;87.24
58662;BME280;44432;49.786;22.760;2023-06-10T03:03:32;99069.61;;;15.83;87.36
58662;BME280;44432;49.786;22.760;2023-06-10T03:06:04;99074.50;;;15.87;87.51
58662;BME280;44432;49.786;22.760;2023-06-10T03:08:35;99075.75;;;15.90;87.52
58662;BME280;44432;49.786;22.760;2023-06-10T03:11:05;99079.83;;;15.93;87.44
58662;BME280;44432;49.786;22.760;2023-06-10T03:13:36;99081.23;;;15.95;87.36
58662;BME280;44432;49.786;22.760;2023-06-10T03:16:07;99083.98;;;15.97;87.31
58662;BME280;44432;49.786;22.760;2023-06-10T03:18:37;99087.19;;;16.00;87.29
58662;BME280;44432;49.786;22.760;2023-06-10T03:21:09;99089.63;;;16.03;87.10
58662;BME280;44432;49.786;22.760;2023-06-10T03:23:39;99086.57;;;16.07;87.22
58662;BME280;44432;49.786;22.760;2023-06-10T03:26:10;99092.52;;;16.10;87.01
58662;BME280;44432;49.786;22.760;2023-06-10T03:28:41;99094.42;;;16.10;86.71
58662;BME280;44432;49.786;22.760;2023-06-10T03:31:12;99091.27;;;16.10;86.55
58662;BME280;44432;49.786;22.760;2023-06-10T03:33:42;99093.80;;;16.12;86.79
58662;BME280;44432;49.786;22.760;2023-06-10T03:36:13;99088.07;;;16.14;86.90
58662;BME280;44432;49.786;22.760;2023-06-10T03:38:44;99088.64;;;16.20;86.81
58662;BME280;44432;49.786;22.760;2023-06-10T03:41:15;99088.42;;;16.25;86.72
58662;BME280;44432;49.786;22.760;2023-06-10T03:43:46;99083.30;;;16.30;86.73
58662;BME280;44432;49.786;22.760;2023-06-10T03:46:16;99083.17;;;16.35;86.52
58662;BME280;44432;49.786;22.760;2023-06-10T03:48:48;99078.58;;;16.39;86.41
58662;BME280;44432;49.786;22.760;2023-06-10T03:51:19;99080.22;;;16.44;86.40
58662;BME280;44432;49.786;22.760;2023-06-10T03:53:50;99077.44;;;16.50;86.36
58662;BME280;44432;49.786;22.760;2023-06-10T03:56:20;99077.10;;;16.55;86.19
58662;BME280;44432;49.786;22.760;2023-06-10T03:58:51;99078.84;;;16.61;85.93
58662;BME280;44432;49.786;22.760;2023-06-10T04:01:22;99073.54;;;16.65;85.93
58662;BME280;44432;49.786;22.760;2023-06-10T04:03:52;99078.91;;;16.71;85.63
58662;BME280;44432;49.786;22.760;2023-06-10T04:06:24;99081.83;;;16.77;85.75
58662;BME280;44432;49.786;22.760;2023-06-10T04:08:55;99076.85;;;16.82;85.58
58662;BME280;44432;49.786;22.760;2023-06-10T04:11:26;99082.91;;;16.88;85.52
58662;BME280;44432;49.786;22.760;2023-06-10T04:13:57;99081.72;;;16.94;85.38
58662;BME280;44432;49.786;22.760;2023-06-10T04:16:28;99083.40;;;17.00;85.31
58662;BME280;44432;49.786;22.760;2023-06-10T04:18:58;99077.04;;;17.07;85.23
58662;BME280;44432;49.786;22.760;2023-06-10T04:21:29;99074.30;;;17.14;85.13
58662;BME280;44432;49.786;22.760;2023-06-10T04:24:00;99075.29;;;17.21;84.87
58662;BME280;44432;49.786;22.760;2023-06-10T04:26:31;99078.24;;;17.26;84.63
58662;BME280;44432;49.786;22.760;2023-06-10T04:29:01;99077.52;;;17.31;84.43
58662;BME280;44432;49.786;22.760;2023-06-10T04:31:32;99077.70;;;17.37;84.40
58662;BME280;44432;49.786;22.760;2023-06-10T04:34:02;99082.58;;;17.45;84.42
58662;BME280;44432;49.786;22.760;2023-06-10T04:36:33;99082.14;;;17.51;84.17
58662;BME280;44432;49.786;22.760;2023-06-10T04:39:04;99081.35;;;17.57;83.92
58662;BME280;44432;49.786;22.760;2023-06-10T04:41:35;99084.56;;;17.62;83.71
58662;BME280;44432;49.786;22.760;2023-06-10T04:44:06;99085.18;;;17.70;83.68
58662;BME280;44432;49.786;22.760;2023-06-10T04:46:37;99081.99;;;17.79;83.61
58662;BME280;44432;49.786;22.760;2023-06-10T04:49:07;99084.25;;;17.87;83.37
58662;BME280;44432;49.786;22.760;2023-06-10T04:51:38;99083.46;;;17.96;83.28
58662;BME280;44432;49.786;22.760;2023-06-10T04:54:09;99085.08;;;18.07;83.04
58662;BME280;44432;49.786;22.760;2023-06-10T04:56:39;99083.00;;;18.13;82.66
58662;BME280;44432;49.786;22.760;2023-06-10T04:59:10;99087.92;;;18.18;82.46
58662;BME280;44432;49.786;22.760;2023-06-10T05:01:41;99089.00;;;18.24;82.40
58662;BME280;44432;49.786;22.760;2023-06-10T05:04:11;99090.81;;;18.32;82.26
58662;BME280;44432;49.786;22.760;2023-06-10T05:06:42;99094.83;;;18.42;82.16
58662;BME280;44432;49.786;22.760;2023-06-10T05:09:12;99094.23;;;18.52;82.01
58662;BME280;44432;49.786;22.760;2023-06-10T05:11:43;99093.98;;;18.61;81.85
58662;BME280;44432;49.786;22.760;2023-06-10T05:14:14;99103.26;;;18.73;81.65
58662;BME280;44432;49.786;22.760;2023-06-10T05:16:45;99102.38;;;18.83;81.27
58662;BME280;44432;49.786;22.760;2023-06-10T05:19:16;99102.99;;;18.94;81.10
58662;BME280;44432;49.786;22.760;2023-06-10T05:21:47;99104.10;;;19.04;80.73
58662;BME280;44432;49.786;22.760;2023-06-10T05:24:18;99106.43;;;19.12;80.35
58662;BME280;44432;49.786;22.760;2023-06-10T05:26:49;99103.20;;;19.19;80.16
58662;BME280;44432;49.786;22.760;2023-06-10T05:29:19;99109.02;;;19.24;79.44
58662;BME280;44432;49.786;22.760;2023-06-10T05:31:50;99105.31;;;19.26;78.75
58662;BME280;44432;49.786;22.760;2023-06-10T05:34:21;99105.46;;;19.29;78.34
58662;BME280;44432;49.786;22.760;2023-06-10T05:36:51;99104.41;;;19.37;78.23
58662;BME280;44432;49.786;22.760;2023-06-10T05:39:22;99102.52;;;19.45;77.60
58662;BME280;44432;49.786;22.760;2023-06-10T05:41:53;99104.36;;;19.48;77.21
58662;BME280;44432;49.786;22.760;2023-06-10T05:44:23;99109.20;;;19.55;76.57
58662;BME280;44432;49.786;22.760;2023-06-10T05:46:54;99108.81;;;19.55;75.90
58662;BME280;44432;49.786;22.760;2023-06-10T05:49:25;99107.10;;;19.55;75.78
58662;BME280;44432;49.786;22.760;2023-06-10T05:51:56;99105.05;;;19.58;75.68
58662;BME280;44432;49.786;22.760;2023-06-10T05:54:28;99104.19;;;19.59;75.12
58662;BME280;44432;49.786;22.760;2023-06-10T05:56:59;99105.65;;;19.56;74.94
58662;BME280;44432;49.786;22.760;2023-06-10T05:59:29;99104.69;;;19.50;74.80
58662;BME280;44432;49.786;22.760;2023-06-10T06:02:01;99107.16;;;19.55;75.31
58662;BME280;44432;49.786;22.760;2023-06-10T06:04:32;99111.36;;;19.60;74.81
58662;BME280;44432;49.786;22.760;2023-06-10T06:10:44;99114.88;;;19.81;74.96
58662;BME280;44432;49.786;22.760;2023-06-10T06:13:17;99112.88;;;19.93;74.72
58662;BME280;44432;49.786;22.760;2023-06-10T06:15:47;99110.48;;;20.06;74.63
58662;BME280;44432;49.786;22.760;2023-06-10T06:18:18;99104.81;;;20.19;74.35
58662;BME280;44432;49.786;22.760;2023-06-10T06:20:49;99107.41;;;20.32;74.37
58662;BME280;44432;49.786;22.760;2023-06-10T06:23:20;99101.33;;;20.36;73.51
58662;BME280;44432;49.786;22.760;2023-06-10T06:25:51;99112.17;;;20.44;72.88
58662;BME280;44432;49.786;22.760;2023-06-10T06:28:24;99108.59;;;20.41;72.31
58662;BME280;44432;49.786;22.760;2023-06-10T06:30:58;99111.30;;;20.34;71.99
58662;BME280;44432;49.786;22.760;2023-06-10T06:33:29;99112.42;;;20.26;71.63
58662;BME280;44432;49.786;22.760;2023-06-10T06:35:59;99122.30;;;20.16;71.63
58662;BME280;44432;49.786;22.760;2023-06-10T06:38:30;99128.34;;;20.13;71.79
58662;BME280;44432;49.786;22.760;2023-06-10T06:41:01;99132.45;;;20.15;72.34
58662;BME280;44432;49.786;22.760;2023-06-10T06:43:35;99128.70;;;20.23;72.18
58662;BME280;44432;49.786;22.760;2023-06-10T06:46:06;99125.99;;;20.33;72.10
58662;BME280;44432;49.786;22.760;2023-06-10T06:48:37;99128.70;;;20.41;71.69
58662;BME280;44432;49.786;22.760;2023-06-10T06:51:08;99133.51;;;20.51;71.50
58662;BME280;44432;49.786;22.760;2023-06-10T06:53:39;99131.52;;;20.59;70.98
58662;BME280;44432;49.786;22.760;2023-06-10T06:56:13;99135.95;;;20.60;70.65
58662;BME280;44432;49.786;22.760;2023-06-10T06:58:44;99138.09;;;20.61;70.55
58662;BME280;44432;49.786;22.760;2023-06-10T07:01:14;99136.70;;;20.61;70.63
58662;BME280;44432;49.786;22.760;2023-06-10T07:03:45;99143.55;;;20.62;70.42
58662;BME280;44432;49.786;22.760;2023-06-10T07:06:16;99145.61;;;20.60;70.48
58662;BME280;44432;49.786;22.760;2023-06-10T07:08:48;99146.82;;;20.55;70.40
58662;BME280;44432;49.786;22.760;2023-06-10T07:11:19;99148.52;;;20.51;70.46
58662;BME280;44432;49.786;22.760;2023-06-10T07:13:51;99151.17;;;20.48;70.45
58662;BME280;44432;49.786;22.760;2023-06-10T07:16:22;99148.86;;;20.42;70.24
58662;BME280;44432;49.786;22.760;2023-06-10T07:18:53;99159.92;;;20.38;70.36
58662;BME280;44432;49.786;22.760;2023-06-10T07:21:24;99158.85;;;20.36;70.52
58662;BME280;44432;49.786;22.760;2023-06-10T07:23:55;99160.70;;;20.33;70.94
58662;BME280;44432;49.786;22.760;2023-06-10T07:26:26;99162.39;;;20.37;71.32
58662;BME280;44432;49.786;22.760;2023-06-10T07:28:56;99165.92;;;20.40;71.19
58662;BME280;44432;49.786;22.760;2023-06-10T07:31:27;99163.14;;;20.47;70.95
58662;BME280;44432;49.786;22.760;2023-06-10T07:33:58;99162.93;;;20.46;70.42
58662;BME280;44432;49.786;22.760;2023-06-10T07:36:28;99164.48;;;20.40;70.47
58662;BME280;44432;49.786;22.760;2023-06-10T07:38:59;99163.86;;;20.43;70.62
58662;BME280;44432;49.786;22.760;2023-06-10T07:41:30;99162.50;;;20.48;70.50
58662;BME280;44432;49.786;22.760;2023-06-10T07:44:01;99163.44;;;20.50;70.39
58662;BME280;44432;49.786;22.760;2023-06-10T07:46:32;99163.22;;;20.58;70.93
58662;BME280;44432;49.786;22.760;2023-06-10T07:49:02;99169.30;;;20.69;70.66
58662;BME280;44432;49.786;22.760;2023-06-10T07:51:33;99168.89;;;20.78;70.32
58662;BME280;44432;49.786;22.760;2023-06-10T07:54:04;99173.87;;;20.83;70.00
58662;BME280;44432;49.786;22.760;2023-06-10T07:56:35;99173.73;;;20.81;69.53
58662;BME280;44432;49.786;22.760;2023-06-10T07:59:05;99177.56;;;20.84;69.71
58662;BME280;44432;49.786;22.760;2023-06-10T08:01:36;99179.70;;;20.85;69.39
58662;BME280;44432;49.786;22.760;2023-06-10T08:04:09;99178.93;;;20.88;69.21
58662;BME280;44432;49.786;22.760;2023-06-10T08:06:40;99177.59;;;20.81;68.79
58662;BME280;44432;49.786;22.760;2023-06-10T08:09:10;99180.48;;;20.73;68.61
58662;BME280;44432;49.786;22.760;2023-06-10T08:11:41;99185.35;;;20.69;68.99
58662;BME280;44432;49.786;22.760;2023-06-10T08:14:12;99181.21;;;20.80;69.38
58662;BME280;44432;49.786;22.760;2023-06-10T08:16:43;99181.95;;;20.93;69.22
58662;BME280;44432;49.786;22.760;2023-06-10T08:19:13;99183.81;;;21.05;68.97
58662;BME280;44432;49.786;22.760;2023-06-10T08:21:44;99181.00;;;21.20;68.87
58662;BME280;44432;49.786;22.760;2023-06-10T08:24:15;99182.44;;;21.43;68.74
58662;BME280;44432;49.786;22.760;2023-06-10T08:26:46;99185.77;;;21.71;68.37
58662;BME280;44432;49.786;22.760;2023-06-10T08:29:17;99185.79;;;21.96;67.47
58662;BME280;44432;49.786;22.760;2023-06-10T08:31:47;99177.94;;;22.14;66.99
58662;BME280;44432;49.786;22.760;2023-06-10T08:34:18;99175.89;;;22.34;66.21
58662;BME280;44432;49.786;22.760;2023-06-10T08:36:49;99170.06;;;22.52;65.68
58662;BME280;44432;49.786;22.760;2023-06-10T08:39:22;99172.08;;;22.70;64.90
58662;BME280;44432;49.786;22.760;2023-06-10T08:42:05;99168.71;;;22.69;64.01
58662;BME280;44432;49.786;22.760;2023-06-10T08:44:41;99170.77;;;22.75;64.01
58662;BME280;44432;49.786;22.760;2023-06-10T08:47:15;99166.67;;;22.85;63.88
58662;BME280;44432;49.786;22.760;2023-06-10T08:49:49;99172.27;;;22.97;63.26
58662;BME280;44432;49.786;22.760;2023-06-10T08:52:22;99167.75;;;23.02;63.01
58662;BME280;44432;49.786;22.760;2023-06-10T08:54:58;99171.16;;;23.13;62.99
58662;BME280;44432;49.786;22.760;2023-06-10T08:57:30;99168.26;;;23.25;62.76
58662;BME280;44432;49.786;22.760;2023-06-10T09:00:01;99169.48;;;23.42;62.72
58662;BME280;44432;49.786;22.760;2023-06-10T09:02:34;99170.25;;;23.60;62.63
58662;BME280;44432;49.786;22.760;2023-06-10T09:05:07;99167.61;;;23.78;62.43
58662;BME280;44432;49.786;22.760;2023-06-10T09:07:39;99172.71;;;23.98;61.82
58662;BME280;44432;49.786;22.760;2023-06-10T09:10:12;99172.67;;;24.07;61.05
58662;BME280;44432;49.786;22.760;2023-06-10T09:12:43;99175.84;;;24.13;60.70
58662;BME280;44432;49.786;22.760;2023-06-10T09:15:14;99176.77;;;24.00;59.35
58662;BME280;44432;49.786;22.760;2023-06-10T09:17:47;99171.23;;;23.73;59.63
58662;BME280;44432;49.786;22.760;2023-06-10T09:20:18;99173.79;;;23.66;60.16
58662;BME280;44432;49.786;22.760;2023-06-10T09:22:49;99172.38;;;23.62;60.38
58662;BME280;44432;49.786;22.760;2023-06-10T09:25:20;99169.80;;;23.61;60.33
58662;BME280;44432;49.786;22.760;2023-06-10T09:28:05;99167.27;;;23.61;60.40
58662;BME280;44432;49.786;22.760;2023-06-10T09:30:42;99172.02;;;23.73;60.38
58662;BME280;44432;49.786;22.760;2023-06-10T09:33:15;99171.87;;;23.91;60.42
58662;BME280;44432;49.786;22.760;2023-06-10T09:35:49;99170.19;;;24.07;60.01
58662;BME280;44432;49.786;22.760;2023-06-10T09:38:22;99175.95;;;24.20;59.48
58662;BME280;44432;49.786;22.760;2023-06-10T09:40:54;99175.08;;;24.20;59.11
58662;BME280;44432;49.786;22.760;2023-06-10T09:43:40;99180.23;;;24.14;58.78
58662;BME280;44432;49.786;22.760;2023-06-10T09:46:17;99174.98;;;24.10;58.81
58662;BME280;44432;49.786;22.760;2023-06-10T09:48:48;99175.99;;;24.13;58.95
58662;BME280;44432;49.786;22.760;2023-06-10T09:51:19;99182.96;;;24.20;57.95
58662;BME280;44432;49.786;22.760;2023-06-10T09:53:52;99178.34;;;24.17;57.71
58662;BME280;44432;49.786;22.760;2023-06-10T09:56:22;99182.02;;;24.21;57.34
58662;BME280;44432;49.786;22.760;2023-06-10T09:59:03;99178.31;;;24.29;57.56
58662;BME280;44432;49.786;22.760;2023-06-10T10:01:35;99179.92;;;24.43;57.48
58662;BME280;44432;49.786;22.760;2023-06-10T10:04:06;99180.54;;;24.58;57.65
58662;BME280;44432;49.786;22.760;2023-06-10T10:06:37;99182.75;;;24.69;56.67
58662;BME280;44432;49.786;22.760;2023-06-10T10:09:09;99181.39;;;24.61;56.04
58662;BME280;44432;49.786;22.760;2023-06-10T10:11:40;99184.59;;;24.60;56.23
58662;BME280;44432;49.786;22.760;2023-06-10T10:14:12;99186.09;;;24.65;56.12
58662;BME280;44432;49.786;22.760;2023-06-10T10:16:44;99183.90;;;24.57;55.82
58662;BME280;44432;49.786;22.760;2023-06-10T10:19:20;99180.61;;;24.66;56.42
58662;BME280;44432;49.786;22.760;2023-06-10T10:21:56;99180.66;;;24.90;56.16
58662;BME280;44432;49.786;22.760;2023-06-10T10:24:35;99175.11;;;25.17;56.13
58662;BME280;44432;49.786;22.760;2023-06-10T10:27:13;99173.08;;;25.32;55.73
58662;BME280;44432;49.786;22.760;2023-06-10T10:29:48;99174.84;;;25.44;55.56
58662;BME280;44432;49.786;22.760;2023-06-10T10:32:24;99173.50;;;25.60;55.08
58662;BME280;44432;49.786;22.760;2023-06-10T10:35:03;99168.95;;;25.74;54.72
58662;BME280;44432;49.786;22.760;2023-06-10T10:37:38;99169.30;;;25.95;54.64
58662;BME280;44432;49.786;22.760;2023-06-10T10:40:11;99169.86;;;26.10;53.68
58662;BME280;44432;49.786;22.760;2023-06-10T10:42:43;99170.02;;;26.15;53.60
58662;BME280;44432;49.786;22.760;2023-06-10T10:45:14;99170.73;;;26.01;52.23
58662;BME280;44432;49.786;22.760;2023-06-10T10:47:46;99171.30;;;25.81;52.39
58662;BME280;44432;49.786;22.760;2023-06-10T10:50:22;99170.15;;;25.57;52.00
58662;BME280;44432;49.786;22.760;2023-06-10T10:52:58;99162.99;;;25.39;53.00
58662;BME280;44432;49.786;22.760;2023-06-10T10:55:29;99162.42;;;25.40;53.14
58662;BME280;44432;49.786;22.760;2023-06-10T10:58:05;99161.55;;;25.36;52.95
58662;BME280;44432;49.786;22.760;2023-06-10T11:00:37;99159.91;;;25.25;53.35
58662;BME280;44432;49.786;22.760;2023-06-10T11:03:08;99162.38;;;25.18;53.40
58662;BME280;44432;49.786;22.760;2023-06-10T11:05:45;99160.73;;;25.13;53.39
58662;BME280;44432;49.786;22.760;2023-06-10T11:08:47;99161.36;;;25.14;53.44
58662;BME280;44432;49.786;22.760;2023-06-10T11:11:23;99155.70;;;25.13;52.89
58662;BME280;44432;49.786;22.760;2023-06-10T11:14:07;99158.98;;;25.18;53.12
58662;BME280;44432;49.786;22.760;2023-06-10T11:16:43;99159.82;;;25.24;53.47
58662;BME280;44432;49.786;22.760;2023-06-10T11:19:33;99158.89;;;25.29;53.23
58662;BME280;44432;49.786;22.760;2023-06-10T11:22:07;99150.34;;;25.31;53.28
58662;BME280;44432;49.786;22.760;2023-06-10T11:24:39;99155.80;;;25.31;53.11
58662;BME280;44432;49.786;22.760;2023-06-10T11:27:20;99154.84;;;25.35;53.05
58662;BME280;44432;49.786;22.760;2023-06-10T11:30:00;99157.88;;;25.23;52.81
58662;BME280;44432;49.786;22.760;2023-06-10T11:32:51;99157.89;;;24.99;52.85
58662;BME280;44432;49.786;22.760;2023-06-10T11:35:25;99165.66;;;24.85;53.01
58662;BME280;44432;49.786;22.760;2023-06-10T11:37:56;99161.22;;;24.64;53.84
58662;BME280;44432;49.786;22.760;2023-06-10T11:40:27;99157.62;;;24.68;54.28
58662;BME280;44432;49.786;22.760;2023-06-10T11:42:59;99163.66;;;24.68;53.79
58662;BME280;44432;49.786;22.760;2023-06-10T11:45:30;99157.98;;;24.60;53.83
58662;BME280;44432;49.786;22.760;2023-06-10T11:48:01;99159.20;;;24.54;54.00
58662;BME280;44432;49.786;22.760;2023-06-10T11:50:33;99153.78;;;24.59;54.10
58662;BME280;44432;49.786;22.760;2023-06-10T11:53:05;99157.81;;;24.67;53.56
58662;BME280;44432;49.786;22.760;2023-06-10T11:55:46;99156.02;;;24.58;53.24
58662;BME280;44432;49.786;22.760;2023-06-10T11:58:18;99152.07;;;24.41;53.29
58662;BME280;44432;49.786;22.760;2023-06-10T12:00:51;99149.25;;;24.17;53.82
58662;BME280;44432;49.786;22.760;2023-06-10T12:03:22;99150.77;;;24.09;54.28
58662;BME280;44432;49.786;22.760;2023-06-10T12:06:00;99149.46;;;24.17;54.82
58662;BME280;44432;49.786;22.760;2023-06-10T12:08:32;99148.09;;;24.31;54.64
58662;BME280;44432;49.786;22.760;2023-06-10T12:11:02;99150.27;;;24.30;53.88
58662;BME280;44432;49.786;22.760;2023-06-10T12:13:33;99150.77;;;24.07;53.81
58662;BME280;44432;49.786;22.760;2023-06-10T12:16:11;99150.81;;;23.92;54.42
58662;BME280;44432;49.786;22.760;2023-06-10T12:18:43;99153.67;;;23.92;54.69
58662;BME280;44432;49.786;22.760;2023-06-10T12:21:19;99154.79;;;23.99;54.94
58662;BME280;44432;49.786;22.760;2023-06-10T12:24:04;99146.83;;;24.02;54.75
58662;BME280;44432;49.786;22.760;2023-06-10T12:26:43;99145.00;;;24.14;54.77
58662;BME280;44432;49.786;22.760;2023-06-10T12:29:20;99143.16;;;24.23;54.20
58662;BME280;44432;49.786;22.760;2023-06-10T12:31:59;99139.40;;;24.21;53.73
58662;BME280;44432;49.786;22.760;2023-06-10T12:34:37;99136.79;;;24.15;54.02
58662;BME280;44432;49.786;22.760;2023-06-10T12:37:12;99146.31;;;24.26;54.35
58662;BME280;44432;49.786;22.760;2023-06-10T12:39:43;99153.30;;;24.39;54.38
58662;BME280;44432;49.786;22.760;2023-06-10T12:42:22;99142.77;;;24.51;54.00
58662;BME280;44432;49.786;22.760;2023-06-10T12:44:55;99150.63;;;24.58;53.96
58662;BME280;44432;49.786;22.760;2023-06-10T12:47:33;99154.10;;;24.68;53.82
58662;BME280;44432;49.786;22.760;2023-06-10T12:50:08;99152.63;;;24.53;53.34
58662;BME280;44432;49.786;22.760;2023-06-10T12:52:41;99153.22;;;24.42;53.67
58662;BME280;44432;49.786;22.760;2023-06-10T12:55:11;99153.93;;;24.44;53.73
58662;BME280;44432;49.786;22.760;2023-06-10T12:57:51;99156.01;;;24.45;53.74
58662;BME280;44432;49.786;22.760;2023-06-10T13:00:22;99155.82;;;24.42;54.07
58662;BME280;44432;49.786;22.760;2023-06-10T13:02:55;99154.38;;;24.49;53.98
58662;BME280;44432;49.786;22.760;2023-06-10T13:05:26;99152.98;;;24.45;53.67
58662;BME280;44432;49.786;22.760;2023-06-10T13:07:57;99151.39;;;24.35;53.68
58662;BME280;44432;49.786;22.760;2023-06-10T13:10:27;99151.49;;;24.36;54.02
58662;BME280;44432;49.786;22.760;2023-06-10T13:12:59;99153.07;;;24.44;53.98
58662;BME280;44432;49.786;22.760;2023-06-10T13:15:29;99156.06;;;24.63;54.02
58662;BME280;44432;49.786;22.760;2023-06-10T13:18:00;99152.03;;;24.69;53.61
58662;BME280;44432;49.786;22.760;2023-06-10T13:20:31;99143.30;;;24.73;53.59